Time;durP1;ratioP1;P1;durP2;ratioP2;P2;SDS_P1;SDS_P2;PMS_P1;PMS_P2;Temp;Humidity;BMP_temperature;BMP_pressure;BME280_temperature;BME280_humidity;BME280_pressure;Samples;Min_cycle;Max_cycle;Signal;HPM_P1;HPM_P2
2023/02/09 00:01:56;;;;;;;;;;;;;;;-5.28;84.11;101309.95;67881;1276;1016484;-60
2023/02/09 00:04:59;;;;;;;;;;;;;;;-5.22;84.50;101305.09;67975;1276;1017588;-60
2023/02/09 00:08:01;;;;;;;;;;;;;;;-5.14;84.10;101306.96;67948;1276;1016832;-60
2023/02/09 00:11:04;;;;;;;;;;;;;;;-5.26;84.97;101299.95;67927;1276;1016065;-60
2023/02/09 00:14:06;;;;;;;;;;;;;;;-5.34;84.13;101293.15;67777;1276;1142716;-60
2023/02/09 00:17:08;;;;;;;;;;;;;;;-5.40;83.91;101290.16;67894;1276;1016458;-60
2023/02/09 00:20:11;;;;;;;;;;;;;;;-5.41;84.56;101291.84;67924;1276;1016529;-59
2023/02/09 00:23:13;;;;;;;;;;;;;;;-5.36;83.57;101287.41;67958;1276;1015708;-59
2023/02/09 00:26:16;;;;;;;;;;;;;;;-5.62;82.67;101284.77;67958;1276;1016453;-60
2023/02/09 00:29:21;;;;;;;;;;;;;;;-5.77;83.51;101286.33;67903;1276;1016208;-59
2023/02/09 00:32:23;;;;;;;;;;;;;;;-5.77;83.89;101289.54;67924;1276;1016019;-59
2023/02/09 00:35:26;;;;;;;;;;;;;;;-5.80;84.70;101291.45;67920;1276;1016391;-59
2023/02/09 00:38:28;;;;;;;;;;;;;;;-5.76;85.47;101286.40;67880;1276;1016526;-60
2023/02/09 00:44:51;;;;;;;;;;;;;;;-5.41;82.85;101275.48;67905;1276;1016346;-60
2023/02/09 00:47:53;;;;;;;;;;;;;;;-5.61;82.77;101275.08;67939;1276;1017360;-60
2023/02/09 00:50:55;;;;;;;;;;;;;;;-5.66;82.40;101269.93;67937;1276;1016556;-59
2023/02/09 00:53:58;;;;;;;;;;;;;;;-5.70;82.70;101259.02;67931;1276;1019034;-59
2023/02/09 00:57:04;;;;;;;;;;;;;;;-5.67;82.64;101255.93;67905;1276;1016065;-59
2023/02/09 01:00:06;;;;;;;;;;;;;;;-5.75;82.22;101253.52;67919;1276;1016268;-59
2023/02/09 01:03:08;;;;;;;;;;;;;;;-5.79;83.27;101259.45;67866;1276;1017279;-59
2023/02/09 01:06:11;;;;;;;;;;;;;;;-5.72;83.96;101256.38;67907;1276;1016436;-59
2023/02/09 01:09:13;;;;;;;;;;;;;;;-5.80;82.52;101255.52;67945;1276;1016435;-60
2023/02/09 01:12:16;;;;;;;;;;;;;;;-5.92;81.23;101257.22;67932;1276;1016413;-59
2023/02/09 01:15:18;;;;;;;;;;;;;;;-6.05;81.54;101250.36;67938;1276;1016392;-60
2023/02/09 01:18:20;;;;;;;;;;;;;;;-6.09;81.34;101248.29;67911;1276;1016450;-59
2023/02/09 01:21:23;;;;;;;;;;;;;;;-6.11;81.71;101244.61;67888;1276;1016413;-60
2023/02/09 01:24:25;;;;;;;;;;;;;;;-5.99;80.97;101238.84;67938;1276;1016190;-59
2023/02/09 01:27:28;;;;;;;;;;;;;;;-6.05;80.47;101228.52;67984;1276;1016352;-59
2023/02/09 01:30:30;;;;;;;;;;;;;;;-6.11;81.04;101229.64;67939;1276;1018594;-60
2023/02/09 01:33:33;;;;;;;;;;;;;;;-6.15;80.97;101226.55;67898;1276;1016414;-59
2023/02/09 01:36:35;;;;;;;;;;;;;;;-6.24;80.90;101218.65;67908;1276;1016307;-59
2023/02/09 01:39:37;;;;;;;;;;;;;;;-6.31;81.43;101211.70;67894;1276;1016250;-60
2023/02/09 01:42:40;;;;;;;;;;;;;;;-6.32;81.51;101207.92;67927;1276;1016380;-60
2023/02/09 01:45:42;;;;;;;;;;;;;;;-6.37;81.68;101208.20;67941;1276;1016476;-60
2023/02/09 01:48:44;;;;;;;;;;;;;;;-6.41;81.00;101210.55;67910;1276;1017654;-60
2023/02/09 01:51:47;;;;;;;;;;;;;;;-6.55;80.81;101211.61;67905;1276;1016419;-59
2023/02/09 01:54:49;;;;;;;;;;;;;;;-6.85;81.92;101207.83;67898;1276;1019176;-59
2023/02/09 01:57:52;;;;;;;;;;;;;;;-6.90;81.98;101204.55;67907;1276;1016443;-60
2023/02/09 02:00:54;;;;;;;;;;;;;;;-7.03;81.94;101200.84;67913;1276;1016240;-59
2023/02/09 02:03:56;;;;;;;;;;;;;;;-7.06;82.54;101199.70;67932;1276;1016438;-60
2023/02/09 02:06:59;;;;;;;;;;;;;;;-6.95;82.53;101193.59;67878;1276;1016380;-60
2023/02/09 02:10:01;;;;;;;;;;;;;;;-6.80;82.00;101191.22;67896;1276;1016366;-59
2023/02/09 02:13:03;;;;;;;;;;;;;;;-6.79;82.06;101183.98;67862;1276;1016334;-60
2023/02/09 02:16:06;;;;;;;;;;;;;;;-6.68;81.52;101173.21;67928;1276;1016172;-60
2023/02/09 02:19:08;;;;;;;;;;;;;;;-6.72;81.35;101169.46;67947;1276;1015979;-59
2023/02/09 02:22:11;;;;;;;;;;;;;;;-6.84;82.12;101167.58;67933;1276;1016939;-60
2023/02/09 02:25:13;;;;;;;;;;;;;;;-6.88;82.75;101167.55;67846;1276;1016499;-60
2023/02/09 02:28:15;;;;;;;;;;;;;;;-6.82;83.36;101170.02;67872;1276;1016401;-60
2023/02/09 02:31:18;;;;;;;;;;;;;;;-6.77;83.33;101171.83;67900;1276;1016440;-60
2023/02/09 02:34:20;;;;;;;;;;;;;;;-6.69;82.87;101173.73;67947;1276;1015981;-60
2023/02/09 02:37:23;;;;;;;;;;;;;;;-6.61;82.26;101168.46;67900;1276;1016503;-59
2023/02/09 02:40:25;;;;;;;;;;;;;;;-6.67;82.23;101165.15;67897;1276;1016511;-60
2023/02/09 02:43:27;;;;;;;;;;;;;;;-6.58;82.05;101162.27;67872;1276;1018496;-60
2023/02/09 02:46:30;;;;;;;;;;;;;;;-6.58;81.41;101162.98;67896;1276;1016291;-60
2023/02/09 02:49:32;;;;;;;;;;;;;;;-6.80;81.03;101160.58;67937;1276;1016314;-60
2023/02/09 02:52:34;;;;;;;;;;;;;;;-7.03;82.08;101153.41;67906;1276;1016468;-60
2023/02/09 02:55:37;;;;;;;;;;;;;;;-7.06;82.49;101154.29;67930;1276;1018461;-60
2023/02/09 02:58:39;;;;;;;;;;;;;;;-7.23;83.15;101151.26;67902;1276;1015717;-60
2023/02/09 03:01:42;;;;;;;;;;;;;;;-7.24;83.50;101153.24;67864;1276;1016673;-60
2023/02/09 03:04:45;;;;;;;;;;;;;;;-7.23;83.55;101152.83;67896;1276;1016290;-60
2023/02/09 03:07:48;;;;;;;;;;;;;;;-7.14;83.59;101156.98;67886;1276;1015718;-59
2023/02/09 03:10:50;;;;;;;;;;;;;;;-7.13;84.57;101155.83;67884;1276;1019583;-59
2023/02/09 03:13:53;;;;;;;;;;;;;;;-7.07;84.30;101157.48;67918;1276;1015971;-59
2023/02/09 03:16:55;;;;;;;;;;;;;;;-7.07;84.28;101159.34;67875;1276;1016499;-60
2023/02/09 03:19:57;;;;;;;;;;;;;;;-7.19;84.31;101150.77;67869;1276;1016698;-60
2023/02/09 03:23:01;;;;;;;;;;;;;;;-7.29;84.55;101145.52;67857;1276;1017095;-60
2023/02/09 03:26:03;;;;;;;;;;;;;;;-7.39;84.93;101146.75;67859;1276;1017267;-60
2023/02/09 03:29:06;;;;;;;;;;;;;;;-7.38;85.14;101143.24;67876;1276;1016353;-60
2023/02/09 03:32:08;;;;;;;;;;;;;;;-7.25;84.98;101139.27;67833;1276;1016372;-60
2023/02/09 03:35:10;;;;;;;;;;;;;;;-7.08;85.00;101141.94;67896;1276;1016090;-59
2023/02/09 03:38:13;;;;;;;;;;;;;;;-6.87;84.51;101139.17;67926;1276;1016796;-59
2023/02/09 03:41:15;;;;;;;;;;;;;;;-6.82;84.11;101137.86;67896;1276;1016348;-59
2023/02/09 03:44:27;;;;;;;;;;;;;;;-6.77;83.62;101133.67;67856;1276;1016329;-59
2023/02/09 03:47:29;;;;;;;;;;;;;;;-6.72;83.29;101132.40;67898;1276;1016238;-59
2023/02/09 03:50:32;;;;;;;;;;;;;;;-6.74;83.15;101136.03;67870;1276;1016268;-59
2023/02/09 03:53:35;;;;;;;;;;;;;;;-6.75;82.75;101134.45;67898;1276;1017849;-60
2023/02/09 03:56:37;;;;;;;;;;;;;;;-6.74;83.21;101138.06;67898;1276;1016236;-59
2023/02/09 03:59:40;;;;;;;;;;;;;;;-6.65;83.16;101133.23;67877;1276;1016352;-59
2023/02/09 04:02:43;;;;;;;;;;;;;;;-6.61;82.53;101134.59;67921;1276;1016497;-59
2023/02/09 04:05:45;;;;;;;;;;;;;;;-6.57;82.98;101131.52;67907;1276;1017692;-59
2023/02/09 04:08:48;;;;;;;;;;;;;;;-6.42;83.11;101130.68;67943;1276;1016268;-59
2023/02/09 04:11:50;;;;;;;;;;;;;;;-6.23;82.82;101122.66;67893;1276;1016922;-59
2023/02/09 04:14:52;;;;;;;;;;;;;;;-6.11;82.44;101116.19;67874;1276;1016376;-59
2023/02/09 04:17:55;;;;;;;;;;;;;;;-6.27;81.99;101110.20;67893;1276;1016337;-60
2023/02/09 04:20:57;;;;;;;;;;;;;;;-6.40;82.39;101106.23;67899;1276;1016282;-59
2023/02/09 04:24:00;;;;;;;;;;;;;;;-6.41;82.09;101105.17;67926;1276;1016490;-59
2023/02/09 04:27:02;;;;;;;;;;;;;;;-6.50;82.18;101108.16;67898;1276;1016383;-59
2023/02/09 04:30:04;;;;;;;;;;;;;;;-6.51;81.98;101102.85;67870;1276;1016419;-59
2023/02/09 04:33:07;;;;;;;;;;;;;;;-6.57;82.41;101102.91;67898;1276;1016440;-60
2023/02/09 04:36:09;;;;;;;;;;;;;;;-6.61;82.40;101107.53;67905;1276;1016468;-59
2023/02/09 04:39:12;;;;;;;;;;;;;;;-6.65;82.82;101104.64;67957;1276;1016296;-59
2023/02/09 04:42:14;;;;;;;;;;;;;;;-6.66;82.75;101105.44;67948;1276;1016492;-60
2023/02/09 04:45:16;;;;;;;;;;;;;;;-6.64;82.76;101105.88;67891;1276;1016473;-59
2023/02/09 04:48:19;;;;;;;;;;;;;;;-6.69;82.41;101102.39;67876;1276;1016446;-59
2023/02/09 04:51:21;;;;;;;;;;;;;;;-6.68;83.49;101103.65;67892;1276;1016364;-60
2023/02/09 04:54:24;;;;;;;;;;;;;;;-6.61;83.22;101097.81;67942;1276;1016349;-60
2023/02/09 05:00:46;;;;;;;;;;;;;;;-6.56;82.85;101092.23;67912;1276;1016762;-59
2023/02/09 05:03:49;;;;;;;;;;;;;;;-6.58;83.72;101094.19;67888;1276;1016509;-59
2023/02/09 05:06:51;;;;;;;;;;;;;;;-6.53;83.15;101090.52;67909;1276;1016437;-60
2023/02/09 05:09:54;;;;;;;;;;;;;;;-6.51;82.96;101088.23;67966;1276;1016828;-59
2023/02/09 05:12:56;;;;;;;;;;;;;;;-6.53;83.15;101091.34;67929;1276;1016415;-59
2023/02/09 05:15:58;;;;;;;;;;;;;;;-6.56;83.74;101093.27;67931;1276;1015962;-59
2023/02/09 05:19:01;;;;;;;;;;;;;;;-6.48;83.35;101090.93;67892;1276;1016110;-59
2023/02/09 05:22:03;;;;;;;;;;;;;;;-6.42;82.89;101088.27;67864;1276;1017440;-60
2023/02/09 05:25:05;;;;;;;;;;;;;;;-6.44;82.66;101087.85;67880;1276;1016272;-59
2023/02/09 05:28:08;;;;;;;;;;;;;;;-6.47;82.75;101082.30;67945;1276;1016393;-60
2023/02/09 05:31:10;;;;;;;;;;;;;;;-6.49;82.49;101077.77;67908;1276;1015827;-60
2023/02/09 05:34:13;;;;;;;;;;;;;;;-6.55;83.24;101076.95;67911;1276;1016407;-59
2023/02/09 05:37:15;;;;;;;;;;;;;;;-6.56;83.54;101076.41;67859;1276;1016462;-59
2023/02/09 05:40:18;;;;;;;;;;;;;;;-6.58;83.67;101071.73;67883;1276;1017758;-59
2023/02/09 05:43:20;;;;;;;;;;;;;;;-6.53;84.03;101073.14;67916;1276;1016299;-59
2023/02/09 05:46:22;;;;;;;;;;;;;;;-6.46;83.88;101078.22;67933;1276;1016417;-59
2023/02/09 05:49:25;;;;;;;;;;;;;;;-6.35;83.87;101073.59;67952;1276;1016208;-59
2023/02/09 05:52:27;;;;;;;;;;;;;;;-6.28;83.36;101068.97;67905;1276;1016483;-60
2023/02/09 05:55:30;;;;;;;;;;;;;;;-6.30;83.01;101070.23;67902;1276;1016410;-60
2023/02/09 05:58:32;;;;;;;;;;;;;;;-6.34;82.87;101072.80;67930;1276;1015935;-59
2023/02/09 06:01:34;;;;;;;;;;;;;;;-6.41;82.77;101075.02;67930;1276;1016227;-60
2023/02/09 06:04:37;;;;;;;;;;;;;;;-6.46;83.02;101073.95;67933;1276;1016433;-59
2023/02/09 06:07:39;;;;;;;;;;;;;;;-6.34;82.53;101073.45;67943;1276;1016394;-59
2023/02/09 06:10:41;;;;;;;;;;;;;;;-6.26;82.43;101067.85;67895;1276;1016413;-60
2023/02/09 06:13:44;;;;;;;;;;;;;;;-6.30;82.64;101068.69;67898;1276;1016197;-60
2023/02/09 06:16:46;;;;;;;;;;;;;;;-6.26;82.40;101068.87;67903;1276;1016395;-60
2023/02/09 06:19:49;;;;;;;;;;;;;;;-6.23;82.90;101065.06;67928;1276;1016349;-60
2023/02/09 06:22:51;;;;;;;;;;;;;;;-6.15;82.96;101061.52;67933;1276;1016511;-60
2023/02/09 06:25:54;;;;;;;;;;;;;;;-6.04;82.64;101062.83;67879;1276;1016419;-60
2023/02/09 06:28:56;;;;;;;;;;;;;;;-5.96;83.06;101057.02;67890;1276;1016544;-60
2023/02/09 06:31:59;;;;;;;;;;;;;;;-5.76;82.75;101060.89;67864;1276;1016459;-60
2023/02/09 06:35:01;;;;;;;;;;;;;;;-5.55;82.34;101066.30;67878;1276;1017190;-59
2023/02/09 06:38:03;;;;;;;;;;;;;;;-5.59;81.62;101068.71;67894;1276;1016401;-60
2023/02/09 06:41:06;;;;;;;;;;;;;;;-5.64;81.93;101069.55;67914;1276;1016365;-59
2023/02/09 06:44:08;;;;;;;;;;;;;;;-5.54;82.17;101074.69;67878;1276;1015919;-59
2023/02/09 06:47:11;;;;;;;;;;;;;;;-5.48;82.09;101080.27;67887;1276;1016187;-59
2023/02/09 06:50:13;;;;;;;;;;;;;;;-5.40;82.17;101086.89;67908;1276;1018256;-60
2023/02/09 06:53:16;;;;;;;;;;;;;;;-5.27;82.59;101081.27;67907;1276;1016437;-60
2023/02/09 06:56:19;;;;;;;;;;;;;;;-5.07;82.80;101083.39;67858;1276;1016312;-59
2023/02/09 06:59:21;;;;;;;;;;;;;;;-4.85;82.77;101093.95;67895;1276;1016910;-59
2023/02/09 07:02:23;;;;;;;;;;;;;;;-4.69;82.57;101092.48;67876;1276;1016369;-59
2023/02/09 07:05:26;;;;;;;;;;;;;;;-4.53;83.21;101087.44;67907;1276;1016816;-59
2023/02/09 07:08:28;;;;;;;;;;;;;;;-4.26;83.23;101081.40;67877;1276;1016133;-59
2023/02/09 07:11:31;;;;;;;;;;;;;;;-4.00;82.96;101079.41;67870;1276;1016648;-60
2023/02/09 07:14:33;;;;;;;;;;;;;;;-3.77;82.69;101075.53;67893;1276;1016361;-60
2023/02/09 07:17:35;;;;;;;;;;;;;;;-3.51;82.37;101079.80;67934;1276;1015710;-59
2023/02/09 07:20:38;;;;;;;;;;;;;;;-3.27;82.00;101076.11;67887;1276;1016277;-59
2023/02/09 07:23:40;;;;;;;;;;;;;;;-2.88;81.69;101074.58;67930;1276;1016499;-59
2023/02/09 07:26:43;;;;;;;;;;;;;;;-2.58;81.92;101073.38;67903;1276;1018688;-59
2023/02/09 07:29:45;;;;;;;;;;;;;;;-2.16;82.24;101066.98;67859;1276;1015817;-60
2023/02/09 07:32:47;;;;;;;;;;;;;;;-1.71;82.02;101062.47;67868;1276;1017383;-59
2023/02/09 07:35:50;;;;;;;;;;;;;;;-1.19;81.82;101059.60;67925;1276;1016560;-59
2023/02/09 07:38:52;;;;;;;;;;;;;;;-0.92;80.51;101052.98;67941;1276;1016394;-59
2023/02/09 07:41:55;;;;;;;;;;;;;;;-0.82;81.17;101046.32;67878;1276;1016213;-59
2023/02/09 07:44:57;;;;;;;;;;;;;;;-0.53;79.91;101044.16;67886;1276;1016530;-59
2023/02/09 07:48:00;;;;;;;;;;;;;;;-0.40;79.47;101043.19;67853;1276;1016426;-59
2023/02/09 07:51:02;;;;;;;;;;;;;;;-0.35;78.77;101041.58;67875;1276;1016515;-59
2023/02/09 07:54:04;;;;;;;;;;;;;;;-0.24;78.86;101036.43;67905;1276;1016514;-59
2023/02/09 07:57:07;;;;;;;;;;;;;;;-0.06;78.52;101033.84;67939;1276;1016294;-59
2023/02/09 08:00:09;;;;;;;;;;;;;;;0.11;78.88;101039.29;67871;1276;1016029;-59
2023/02/09 08:03:12;;;;;;;;;;;;;;;0.25;79.01;101040.73;67890;1276;1017208;-59
2023/02/09 08:06:17;;;;;;;;;;;;;;;0.50;78.80;101037.70;67890;1276;1018202;-59
2023/02/09 08:09:20;;;;;;;;;;;;;;;0.96;78.33;101030.95;67884;1276;1016515;-59
2023/02/09 08:12:58;;;;;;;;;;;;;;;1.13;77.37;101029.46;67896;1276;1018437;-59
2023/02/09 08:15:46;;;;;;;;;;;;;;;1.11;77.39;101036.66;67867;1276;1016465;-59
2023/02/09 08:18:48;;;;;;;;;;;;;;;1.41;77.40;101043.77;67918;1276;1016566;-60
2023/02/09 08:21:51;;;;;;;;;;;;;;;1.80;76.98;101049.89;67932;1276;1018395;-59
2023/02/09 08:24:53;;;;;;;;;;;;;;;2.12;75.85;101056.07;67918;1276;1016339;-60
2023/02/09 08:27:56;;;;;;;;;;;;;;;2.43;75.97;101054.10;67886;1276;1016500;-59
2023/02/09 08:30:58;;;;;;;;;;;;;;;2.87;75.85;101045.95;67928;1276;1016528;-60
2023/02/09 08:34:02;;;;;;;;;;;;;;;3.16;74.49;101043.52;67918;1276;1016400;-59
2023/02/09 08:37:05;;;;;;;;;;;;;;;3.29;73.96;101043.56;67955;1276;1016264;-59
2023/02/09 08:40:07;;;;;;;;;;;;;;;3.46;74.11;101048.30;67885;1276;1015762;-60
2023/02/09 08:43:10;;;;;;;;;;;;;;;3.76;73.26;101050.65;67920;1276;1016481;-60
2023/02/09 08:46:13;;;;;;;;;;;;;;;3.95;71.72;101049.30;67919;1276;1016992;-60
2023/02/09 08:49:15;;;;;;;;;;;;;;;3.90;71.09;101043.77;67956;1276;1016988;-60
2023/02/09 08:52:18;;;;;;;;;;;;;;;3.92;70.62;101046.35;67912;1276;1016398;-60
2023/02/09 08:55:21;;;;;;;;;;;;;;;4.01;70.58;101048.80;67884;1276;1016440;-60
2023/02/09 08:58:23;;;;;;;;;;;;;;;4.15;70.03;101041.71;67907;1276;1018034;-60
2023/02/09 09:01:26;;;;;;;;;;;;;;;4.37;69.68;101035.48;67947;1276;1016394;-60
2023/02/09 09:04:30;;;;;;;;;;;;;;;4.31;67.97;101036.86;67908;1276;1016355;-60
2023/02/09 09:07:35;;;;;;;;;;;;;;;4.27;68.71;101040.16;67942;1276;1016163;-60
2023/02/09 09:10:37;;;;;;;;;;;;;;;4.33;68.31;101042.42;67892;1276;1016457;-61
2023/02/09 09:13:39;;;;;;;;;;;;;;;4.30;67.68;101041.02;67927;1276;1018943;-60
2023/02/09 09:16:42;;;;;;;;;;;;;;;4.24;68.33;101037.21;67941;1276;1016339;-60
2023/02/09 09:19:44;;;;;;;;;;;;;;;4.35;68.20;101034.45;67938;1276;1016469;-60
2023/02/09 09:22:58;;;;;;;;;;;;;;;4.66;68.29;101031.46;67943;1276;1016434;-59
2023/02/09 09:26:00;;;;;;;;;;;;;;;4.86;66.93;101031.27;67957;1276;1016390;-60
2023/02/09 09:29:04;;;;;;;;;;;;;;;4.97;66.71;101034.54;67947;1276;1016174;-60
2023/02/09 09:32:06;;;;;;;;;;;;;;;5.13;66.96;101036.56;67911;1276;1016141;-60
2023/02/09 09:35:09;;;;;;;;;;;;;;;5.23;66.13;101039.83;67885;1276;1016449;-60
2023/02/09 09:38:11;;;;;;;;;;;;;;;5.36;66.34;101042.20;67859;1276;1018028;-60
2023/02/09 09:41:13;;;;;;;;;;;;;;;5.51;65.47;101037.45;67869;1276;1016791;-60
2023/02/09 09:44:16;;;;;;;;;;;;;;;5.60;66.01;101031.17;67931;1276;1016056;-60
2023/02/09 09:47:20;;;;;;;;;;;;;;;5.92;64.56;101024.23;67914;1276;1016340;-60
2023/02/09 09:50:22;;;;;;;;;;;;;;;6.14;63.72;101025.64;67907;1276;1016493;-60
2023/02/09 09:53:25;;;;;;;;;;;;;;;6.16;63.62;101028.23;67936;1276;1018577;-60
2023/02/09 09:56:27;;;;;;;;;;;;;;;6.30;63.30;101028.46;67862;1276;1016462;-60
2023/02/09 09:59:30;;;;;;;;;;;;;;;6.50;63.35;101029.87;67915;1276;1016343;-60
2023/02/09 10:02:32;;;;;;;;;;;;;;;6.76;62.83;101020.05;67947;1276;1016204;-60
2023/02/09 10:05:34;;;;;;;;;;;;;;;6.95;62.54;101013.94;67928;1276;1016424;-59
2023/02/09 10:08:37;;;;;;;;;;;;;;;7.08;61.75;101011.17;67898;1276;1016362;-60
2023/02/09 10:11:39;;;;;;;;;;;;;;;7.26;61.33;101000.70;67908;1276;1016403;-60
2023/02/09 10:14:42;;;;;;;;;;;;;;;7.54;61.02;100998.06;67953;1276;1016684;-60
2023/02/09 10:17:44;;;;;;;;;;;;;;;7.72;60.40;100997.30;67944;1276;1016342;-60
2023/02/09 10:20:47;;;;;;;;;;;;;;;7.98;59.10;100997.26;67908;1276;1016178;-59
2023/02/09 10:23:49;;;;;;;;;;;;;;;8.31;58.81;100986.44;67902;1276;1015992;-60
2023/02/09 10:26:51;;;;;;;;;;;;;;;8.62;58.05;100973.71;67896;1276;1016813;-59
2023/02/09 10:29:54;;;;;;;;;;;;;;;8.77;57.46;100970.11;67897;1276;1017293;-59
2023/02/09 10:32:57;;;;;;;;;;;;;;;8.79;56.65;100956.45;67956;1276;1016700;-60
2023/02/09 10:35:59;;;;;;;;;;;;;;;8.74;55.94;100942.09;67933;1276;1018990;-60
2023/02/09 10:39:03;;;;;;;;;;;;;;;8.73;56.22;100939.14;67940;1276;1016415;-60
2023/02/09 10:42:05;;;;;;;;;;;;;;;8.92;56.49;100944.86;67899;1276;1016339;-60
2023/02/09 10:45:07;;;;;;;;;;;;;;;8.94;55.75;100943.25;67897;1276;1016702;-60
2023/02/09 10:48:10;;;;;;;;;;;;;;;9.00;55.75;100940.69;67879;1276;1016476;-60
2023/02/09 10:51:12;;;;;;;;;;;;;;;9.05;55.56;100937.09;67954;1276;1015847;-60
2023/02/09 10:54:15;;;;;;;;;;;;;;;9.22;55.39;100935.34;67935;1276;1016308;-60
2023/02/09 10:57:17;;;;;;;;;;;;;;;9.31;55.13;100928.52;67917;1276;1018468;-60
2023/02/09 11:00:20;;;;;;;;;;;;;;;9.42;54.59;100926.52;67890;1276;1016418;-60
2023/02/09 11:03:24;;;;;;;;;;;;;;;9.27;51.70;100916.56;67898;1276;1016354;-60
2023/02/09 11:06:26;;;;;;;;;;;;;;;8.96;50.41;100910.77;67907;1276;1016388;-60
2023/02/09 11:09:29;;;;;;;;;;;;;;;8.71;50.72;100902.91;67970;1276;1016227;-61
2023/02/09 11:12:31;;;;;;;;;;;;;;;8.58;51.44;100899.33;67935;1276;1016191;-60
2023/02/09 11:15:34;;;;;;;;;;;;;;;8.70;51.53;100891.23;67971;1276;1016416;-60
2023/02/09 11:18:36;;;;;;;;;;;;;;;8.69;50.44;100888.29;67897;1276;1016420;-60
2023/02/09 11:21:38;;;;;;;;;;;;;;;8.66;51.50;100884.34;67868;1276;1016526;-60
2023/02/09 11:24:41;;;;;;;;;;;;;;;8.60;50.88;100881.84;67944;1276;1016485;-60
2023/02/09 11:27:43;;;;;;;;;;;;;;;8.66;50.45;100882.59;67954;1276;1016445;-60
2023/02/09 11:30:46;;;;;;;;;;;;;;;8.79;49.77;100875.88;67918;1276;1017513;-61
2023/02/09 11:33:48;;;;;;;;;;;;;;;8.77;50.16;100876.27;67890;1276;1015811;-61
2023/02/09 11:36:50;;;;;;;;;;;;;;;8.93;50.33;100873.33;67893;1276;1016653;-60
2023/02/09 11:39:53;;;;;;;;;;;;;;;9.06;49.06;100875.30;67926;1276;1016329;-60
2023/02/09 11:42:55;;;;;;;;;;;;;;;8.98;49.12;100875.27;67935;1276;1016032;-60
2023/02/09 11:45:58;;;;;;;;;;;;;;;8.83;46.62;100869.17;67970;1276;1015850;-61
2023/02/09 11:49:00;;;;;;;;;;;;;;;8.52;46.23;100866.83;67906;1276;1016179;-60
2023/02/09 11:52:02;;;;;;;;;;;;;;;8.39;46.20;100852.77;67893;1276;1015984;-60
2023/02/09 11:55:05;;;;;;;;;;;;;;;8.56;47.28;100853.66;67928;1276;1016303;-61
2023/02/09 11:58:07;;;;;;;;;;;;;;;8.62;47.32;100846.75;67979;1276;1016418;-61
2023/02/09 12:01:10;;;;;;;;;;;;;;;8.61;46.62;100838.92;67971;1276;1016439;-61
2023/02/09 12:04:12;;;;;;;;;;;;;;;8.65;46.79;100835.35;67894;1276;1016487;-61
2023/02/09 12:07:14;;;;;;;;;;;;;;;8.79;45.78;100829.14;67895;1276;1016459;-61
2023/02/09 12:10:17;;;;;;;;;;;;;;;8.90;45.91;100827.49;67894;1276;1016323;-61
2023/02/09 12:13:19;;;;;;;;;;;;;;;8.99;46.09;100826.77;65328;1277;5389258;-61
2023/02/09 12:16:22;;;;;;;;;;;;;;;8.99;46.28;100826.08;67946;1276;1017376;-61
2023/02/09 12:19:24;;;;;;;;;;;;;;;9.08;45.60;100823.41;67949;1276;1016010;-60
2023/02/09 12:22:27;;;;;;;;;;;;;;;9.08;45.90;100816.63;67913;1276;1016428;-61
2023/02/09 12:25:29;;;;;;;;;;;;;;;9.21;45.91;100814.56;67916;1276;1016440;-61
2023/02/09 12:28:32;;;;;;;;;;;;;;;9.19;45.51;100812.88;67906;1276;1018334;-60
2023/02/09 12:31:34;;;;;;;;;;;;;;;9.25;44.77;100801.04;67929;1276;1016214;-60
2023/02/09 12:34:37;;;;;;;;;;;;;;;9.14;44.65;100798.31;67909;1276;1016731;-60
2023/02/09 12:37:40;;;;;;;;;;;;;;;9.18;45.30;100789.67;67983;1276;1015974;-61
2023/02/09 12:40:42;;;;;;;;;;;;;;;9.26;44.90;100789.30;67920;1276;1016262;-60
2023/02/09 12:43:45;;;;;;;;;;;;;;;9.34;44.86;100783.17;67910;1276;1016287;-61
2023/02/09 12:46:50;;;;;;;;;;;;;;;9.40;44.86;100781.12;67886;1276;1016484;-61
2023/02/09 12:49:53;;;;;;;;;;;;;;;9.55;44.80;100787.21;67887;1276;1017056;-60
2023/02/09 12:52:56;;;;;;;;;;;;;;;9.64;44.05;100780.86;67946;1276;1016240;-61
2023/02/09 12:55:58;;;;;;;;;;;;;;;9.47;43.14;100775.87;67932;1276;1016430;-61
2023/02/09 12:59:01;;;;;;;;;;;;;;;9.41;43.71;100773.95;67926;1276;1018214;-60
2023/02/09 13:02:03;;;;;;;;;;;;;;;9.28;43.13;100773.38;67897;1276;1018915;-61
2023/02/09 13:05:06;;;;;;;;;;;;;;;9.25;42.87;100764.02;67912;1276;1018773;-61
2023/02/09 13:08:08;;;;;;;;;;;;;;;9.22;42.85;100764.61;67972;1276;1016402;-60
2023/02/09 13:11:10;;;;;;;;;;;;;;;9.25;43.83;100759.15;67933;1276;1016145;-61
2023/02/09 13:14:13;;;;;;;;;;;;;;;9.39;43.23;100755.30;67931;1276;1016523;-61
2023/02/09 13:17:15;;;;;;;;;;;;;;;9.29;42.28;100752.92;67928;1276;1016484;-61
2023/02/09 13:20:18;;;;;;;;;;;;;;;9.30;41.94;100750.46;67935;1276;1016540;-60
2023/02/09 13:23:20;;;;;;;;;;;;;;;9.18;41.70;100749.19;67976;1276;1016505;-60
2023/02/09 13:26:23;;;;;;;;;;;;;;;9.19;42.25;100745.14;67923;1276;1016468;-61
2023/02/09 13:29:25;;;;;;;;;;;;;;;9.23;41.47;100746.27;67960;1276;1016261;-60
2023/02/09 13:32:27;;;;;;;;;;;;;;;9.14;41.70;100740.20;67911;1276;1016262;-61
2023/02/09 13:35:30;;;;;;;;;;;;;;;9.13;41.73;100734.13;67924;1276;1016159;-61
2023/02/09 13:38:32;;;;;;;;;;;;;;;9.19;42.08;100727.69;67945;1276;1016475;-60
2023/02/09 13:41:35;;;;;;;;;;;;;;;9.21;41.78;100727.11;67963;1276;1016237;-61
2023/02/09 13:44:37;;;;;;;;;;;;;;;9.20;42.34;100726.61;67967;1276;1016455;-61
2023/02/09 13:47:40;;;;;;;;;;;;;;;9.27;41.87;100727.13;67907;1276;1016499;-60
2023/02/09 13:50:42;;;;;;;;;;;;;;;9.11;41.81;100720.38;67912;1276;1016522;-61
2023/02/09 13:53:44;;;;;;;;;;;;;;;9.09;41.09;100719.90;67890;1276;1016327;-60
2023/02/09 13:56:47;;;;;;;;;;;;;;;9.03;40.92;100713.60;67911;1276;1016693;-61
2023/02/09 13:59:49;;;;;;;;;;;;;;;8.92;40.39;100710.71;67954;1276;1016354;-61
2023/02/09 14:02:51;;;;;;;;;;;;;;;8.78;40.69;100709.13;67964;1276;1016069;-60
2023/02/09 14:05:54;;;;;;;;;;;;;;;8.61;40.62;100705.35;67921;1276;1018513;-61
2023/02/09 14:08:56;;;;;;;;;;;;;;;8.41;40.47;100706.63;67915;1276;1016482;-60
2023/02/09 14:12:00;;;;;;;;;;;;;;;8.30;40.89;100704.07;67917;1276;1016856;-60
2023/02/09 14:18:22;;;;;;;;;;;;;;;8.01;41.26;100705.39;67910;1276;1018008;-60
2023/02/09 14:21:25;;;;;;;;;;;;;;;8.08;41.03;100707.31;67957;1276;1016246;-61
2023/02/09 14:30:28;;;;;;;40.90;17.60;;;;;;;7.88;42.07;100695.33;131063;1319;545538;-62
2023/02/09 14:33:30;;;;;;;45.50;18.10;;;;;;;8.09;41.84;100701.04;134488;1293;22547;-65
2023/02/09 14:36:33;;;;;;;45.20;20.00;;;;;;;7.92;42.08;100698.05;134482;1272;25559;-64
2023/02/09 14:39:35;;;;;;;45.00;20.00;;;;;;;7.73;42.25;100693.58;134487;1293;22570;-64
2023/02/09 14:42:38;;;;;;;46.30;19.10;;;;;;;7.61;42.39;100690.64;130491;1290;5370104;-62
2023/02/09 14:45:42;;;;;;;47.80;20.60;;;;;;;7.37;42.69;100687.62;134824;1287;22539;-64
2023/02/09 14:48:44;;;;;;;47.70;20.80;;;;;;;7.10;42.97;100686.50;134800;1287;24269;-62
2023/02/09 14:51:46;;;;;;;48.70;20.70;;;;;;;6.91;43.03;100684.74;134805;1288;25739;-61
2023/02/09 14:54:49;;;;;;;61.60;25.30;;;;;;;6.76;43.05;100685.86;134985;1284;22546;-64
2023/02/09 14:57:51;;;;;;;70.60;28.20;;;;;;;6.64;43.04;100694.73;134958;1284;22570;-62
2023/02/09 15:00:54;;;;;;;71.40;28.30;;;;;;;6.53;43.16;100699.75;135010;1265;22570;-63
2023/02/09 15:03:56;;;;;;;71.90;30.30;;;;;;;6.27;43.39;100699.08;134987;1284;22539;-62
2023/02/09 15:06:58;;;;;;;64.30;28.50;;;;;;;6.03;43.58;100698.33;134943;1284;22586;-62
2023/02/09 15:10:01;;;;;;;65.90;26.20;;;;;;;5.85;43.61;100693.64;134985;1284;22539;-63
2023/02/09 15:13:03;;;;;;;58.30;24.40;;;;;;;5.59;43.88;100683.36;135144;1283;25282;-62
2023/02/09 15:16:06;;;;;;;55.30;23.10;;;;;;;5.43;44.09;100679.02;135136;1283;25106;-62
2023/02/09 15:19:08;;;;;;;46.90;22.20;;;;;;;5.22;44.00;100675.23;135175;1283;22546;-63
2023/02/09 15:22:13;;;;;;;50.00;23.90;;;;;;;4.94;44.33;100668.70;135181;1283;22543;-63
2023/02/09 15:25:16;;;;;;;52.60;24.00;;;;;;;4.63;44.84;100657.17;135172;1283;22585;-62
2023/02/09 15:28:20;;;;;;;;;;;;;;;4.38;45.24;100655.77;135170;1283;23925;-63